Sun Princess — ZCBU6 — position and weather

sailwx.info

Track history (hours):
 
Tides and Currents Weather Stations Pressure Air Temp Water Temp Dewpoint Dewpoint Depression Visibility Wind Speed Wind Dir Waves Ship Positions

Sun Princess

Operator: Princess Cruises

Last reported at 2020-Apr-05 18:00 UTC. Time now 2020-Apr-06 18:07 UTC.
Position S 27°30' E 153°36'.

Length 261.3 m; beam 32.3 m; draft 8.1 m.

Type: Passenger vessel. MMSI: 310438000.

Wind from 150 at 10 knots

Barometer 1014.4 mb
Air temperature 23.5 ° C
Visibility: greater than 10.8 NM
Dewpoint 22.8 ° C
Water temperature 22.0 ° C

Date/timePositionNaut miles runAvg speedWind from/ knotsBaromVisibWave heightAir tempDewpointWater temp
2020-Apr-05 18:00S 27°30' E 153°36'25 2.3 150 / 101014.410.8 23.522.822.0
2020-Apr-05 07:03S 27°05' E 153°38'14 6.8
2020-Apr-05 05:00S 27°18' E 153°42'13 1.9 150 / 121012.410.8 25.021.226.8
2020-Apr-04 22:00S 27°30' E 153°36'420.5 210 / 121012.510.8 25.020.426.8
2020-Apr-04 21:48S 27°32' E 153°40'412.2
2020-Apr-04 21:29S 27°28' E 153°41'1711.8
2020-Apr-04 20:00S 27°11' E 153°42'611.3
2020-Apr-04 19:29S 27°05' E 153°41'18 6.8
2020-Apr-04 16:51S 27°23' E 153°42'15 0.8
2020-Apr-03 22:22S 27°09' E 153°39'1 0.0
2020-Apr-03 10:43S 27°09' E 153°38'5 0.4
2020-Apr-02 21:17S 27°04' E 153°37'610.2
2020-Apr-02 20:44S 27°09' E 153°39'40 5.1
2020-Apr-02 13:00S 27°48' E 153°30'4111.6 040 / 151013.810.8 25.024.326.5
2020-Apr-02 09:28S 27°08' E 153°41'2 1.6
2020-Apr-02 08:00S 27°09' E 153°39'326 9.5
2020-Mar-31 21:42S 32°31' E 152°42'710.4
2020-Mar-31 21:00S 32°36' E 152°36'510.5
2020-Mar-31 20:30S 32°40' E 152°31'2811.1
2020-Mar-31 18:00S 32°57' E 152°05'1610.4
2020-Mar-31 16:30S 33°08' E 151°51'611.1
2020-Mar-31 16:00S 33°12' E 151°48'4510.1
2020-Mar-31 11:30S 33°50' E 151°18'4 8.1
2020-Mar-31 11:00S 33°51' E 151°13'1 0.1
2020-Mar-30 17:25S 33°52' E 151°11'0 0.0
2020-Mar-30 13:55S 33°52' E 151°11'0 0.0
2020-Mar-29 16:25S 33°52' E 151°11'0 0.0
2020-Mar-29 14:13S 33°52' E 151°11'0 0.0
2020-Mar-29 13:13S 33°52' E 151°11'0 0.0
2020-Mar-29 12:49S 33°52' E 151°11'0 0.0
2020-Mar-29 12:07S 33°52' E 151°11'0 0.0
2020-Mar-29 11:01S 33°52' E 151°11'0 0.0
2020-Mar-28 19:25S 33°52' E 151°11'0 0.0
2020-Mar-28 15:19S 33°52' E 151°11'0 0.0
2020-Mar-28 12:19S 33°52' E 151°11'0 0.0
2020-Mar-28 11:55S 33°52' E 151°11'0 0.0
2020-Mar-28 11:25S 33°52' E 151°11'0 0.0
2020-Mar-27 16:25S 33°52' E 151°11'0 0.0
2020-Mar-27 14:55S 33°52' E 151°11'0 0.0
2020-Mar-27 13:25S 33°52' E 151°11'0 0.0
2020-Mar-27 12:19S 33°52' E 151°11'0 0.0
2020-Mar-27 11:49S 33°52' E 151°11'  
Track history (hours):
 
Tides and Currents Weather Stations Pressure Air Temp Water Temp Dewpoint Dewpoint Depression Visibility Wind Speed Wind Dir Waves Ship Positions

Sun Princess

Operator: Princess Cruises

Last reported at 2020-Apr-05 18:00 UTC. Time now 2020-Apr-06 18:07 UTC.
Position S 27°30' E 153°36'.

Length 261.3 m; beam 32.3 m; draft 8.1 m.

Type: Passenger vessel. MMSI: 310438000.

Wind from 150 at 10 knots

Barometer 1014.4 mb
Air temperature 23.5 ° C
Visibility: greater than 10.8 NM
Dewpoint 22.8 ° C
Water temperature 22.0 ° C

Date/timePositionNaut miles runAvg speedWind from/ knotsBaromVisibWave heightAir tempDewpointWater temp
2020-Apr-05 18:00S 27°30' E 153°36'25 2.3 150 / 101014.410.8 23.522.822.0
2020-Apr-05 07:03S 27°05' E 153°38'14 6.8
2020-Apr-05 05:00S 27°18' E 153°42'13 1.9 150 / 121012.410.8 25.021.226.8
2020-Apr-04 22:00S 27°30' E 153°36'420.5 210 / 121012.510.8 25.020.426.8
2020-Apr-04 21:48S 27°32' E 153°40'412.2
2020-Apr-04 21:29S 27°28' E 153°41'1711.8
2020-Apr-04 20:00S 27°11' E 153°42'611.3
2020-Apr-04 19:29S 27°05' E 153°41'18 6.8
2020-Apr-04 16:51S 27°23' E 153°42'15 0.8
2020-Apr-03 22:22S 27°09' E 153°39'1 0.0
2020-Apr-03 10:43S 27°09' E 153°38'5 0.4
2020-Apr-02 21:17S 27°04' E 153°37'610.2
2020-Apr-02 20:44S 27°09' E 153°39'40 5.1
2020-Apr-02 13:00S 27°48' E 153°30'4111.6 040 / 151013.810.8 25.024.326.5
2020-Apr-02 09:28S 27°08' E 153°41'2 1.6
2020-Apr-02 08:00S 27°09' E 153°39'326 9.5
2020-Mar-31 21:42S 32°31' E 152°42'710.4
2020-Mar-31 21:00S 32°36' E 152°36'510.5
2020-Mar-31 20:30S 32°40' E 152°31'2811.1
2020-Mar-31 18:00S 32°57' E 152°05'1610.4
2020-Mar-31 16:30S 33°08' E 151°51'611.1
2020-Mar-31 16:00S 33°12' E 151°48'4510.1
2020-Mar-31 11:30S 33°50' E 151°18'4 8.1
2020-Mar-31 11:00S 33°51' E 151°13'1 0.1
2020-Mar-30 17:25S 33°52' E 151°11'0 0.0
2020-Mar-30 13:55S 33°52' E 151°11'0 0.0
2020-Mar-29 16:25S 33°52' E 151°11'0 0.0
2020-Mar-29 14:13S 33°52' E 151°11'0 0.0
2020-Mar-29 13:13S 33°52' E 151°11'0 0.0
2020-Mar-29 12:49S 33°52' E 151°11'0 0.0
2020-Mar-29 12:07S 33°52' E 151°11'0 0.0
2020-Mar-29 11:01S 33°52' E 151°11'0 0.0
2020-Mar-28 19:25S 33°52' E 151°11'0 0.0
2020-Mar-28 15:19S 33°52' E 151°11'0 0.0
2020-Mar-28 12:19S 33°52' E 151°11'0 0.0
2020-Mar-28 11:55S 33°52' E 151°11'0 0.0
2020-Mar-28 11:25S 33°52' E 151°11'0 0.0
2020-Mar-27 16:25S 33°52' E 151°11'0 0.0
2020-Mar-27 14:55S 33°52' E 151°11'0 0.0
2020-Mar-27 13:25S 33°52' E 151°11'0 0.0
2020-Mar-27 12:19S 33°52' E 151°11'0 0.0
2020-Mar-27 11:49S 33°52' E 151°11'  

Dump ship's entire track history